Grimstrup, Denmark
Current Conditions -  °F | °C
As of 3:50 AM on Tuesday 21 Oct 2014 (Local Time) from EKEB Reporting Station
Few Clouds Few Clouds  
Wind Chill: 10°   Ceiling: Unl
Heat Index: 10°   Visibility: 6mi
Dew Point: 10°   Wind: 6mph
Humidity: 100%   Direction: 180°S
Pressure: 29.68"   Gusts: NA
Location:  55.53°N, 8.66°E
Report Text: EKEB 210150Z AUTO 18005KT 9000NDV FEW056/// FEW096///10/10 Q1005
Loading
Personal Weather Stations






























Interactive Weather Map
Tropical Storm Tracking
New forecast layout! Learn more

10-Day Weather Forecast

Advertisements
Track Severe Weather on mobile